Sharm el Sheikh, Egypt
Current Conditions -  °F | °C
As of 3:00 AM on Wednesday 22 Oct 2014 (Local Time) from HESH Reporting Station
Clear Clear  
Wind Chill: 23°   Ceiling: Unl
Heat Index: 23°   Visibility: 6mi
Dew Point: 18°   Wind: 7mph
Humidity: 73%   Direction: 340°NNW
Pressure: 29.91"   Gusts: NA
Location:  27.98°N, 34.39°E
Report Text: HESH 220100Z 34006KT CAVOK 23/18 Q1013 NOSIG
Loading
Personal Weather Stations






























Interactive Weather Map New forecast layout! Learn more

10-Day Weather Forecast

Advertisements
Track Severe Weather on mobile